createdAt,value
2024-01-29T00:04:18.338Z,92.99
2024-01-29T00:19:19.011Z,93.34
2024-01-29T00:34:19.644Z,93.49
2024-01-29T00:49:20.287Z,94.84
2024-01-29T01:04:20.835Z,94.25
2024-01-29T01:19:21.418Z,94.21
2024-01-29T01:34:22.189Z,94.52
2024-01-29T01:49:22.507Z,94.25
2024-01-29T02:04:23.432Z,94.50
2024-01-29T02:19:23.517Z,94.88
2024-01-29T02:34:24.152Z,94.46
2024-01-29T02:49:24.901Z,94.67
2024-01-29T03:04:25.467Z,95.24
2024-01-29T03:19:26.019Z,95.22
2024-01-29T03:34:26.539Z,94.73
2024-01-29T03:49:27.353Z,95.15
2024-01-29T04:04:27.910Z,95.41
2024-01-29T04:19:28.433Z,95.94
2024-01-29T04:34:28.935Z,96.04
2024-01-29T04:49:29.331Z,96.41
2024-01-29T05:04:29.874Z,96.51
2024-01-29T05:19:30.451Z,95.87
2024-01-29T05:34:30.744Z,96.30
2024-01-29T05:49:31.509Z,96.61
2024-01-29T06:04:31.970Z,96.61
2024-01-29T06:19:32.418Z,96.55
2024-01-29T06:34:32.800Z,96.23
2024-01-29T06:49:33.421Z,97.35
2024-01-29T07:04:34.063Z,95.98
2024-01-29T07:19:34.979Z,95.87
2024-01-29T07:34:35.372Z,96.36
2024-01-29T08:04:36.254Z,97.49
2024-01-29T08:19:36.662Z,97.25
2024-01-29T08:34:36.984Z,97.42
2024-01-29T08:49:37.721Z,97.86
2024-01-29T09:04:38.477Z,97.72
2024-01-29T09:19:38.923Z,94.09
2024-01-29T09:34:39.742Z,88.07
2024-01-29T09:49:40.492Z,81.62
2024-01-29T10:04:41.222Z,79.46
2024-01-29T10:19:41.880Z,75.57
2024-01-29T10:34:42.601Z,72.88
2024-01-29T10:49:42.989Z,68.02
2024-01-29T11:04:44.124Z,65.52
2024-01-29T11:19:44.218Z,63.50
2024-01-29T11:34:44.715Z,61.69
2024-01-29T11:49:45.590Z,60.63
2024-01-29T12:04:46.270Z,57.98
2024-01-29T12:19:46.732Z,59.74
2024-01-29T12:34:47.354Z,62.52
2024-01-29T12:49:48.114Z,63.24
2024-01-29T13:04:48.309Z,58.58
2024-01-29T13:19:49.078Z,56.57
2024-01-29T13:34:49.681Z,57.98
2024-01-29T13:49:49.980Z,58.36
2024-01-29T14:04:51.885Z,60.75
2024-01-29T14:19:55.494Z,59.59
2024-01-29T14:34:53.600Z,59.50
2024-01-29T14:49:52.880Z,60.42
2024-01-29T15:04:53.893Z,61.58
2024-01-29T15:19:54.484Z,67.16
2024-01-29T15:34:55.181Z,71.00
2024-01-29T15:49:55.511Z,72.33
2024-01-29T16:04:56.086Z,74.71
2024-01-29T16:19:57.350Z,76.67
2024-01-29T16:34:57.708Z,76.09
2024-01-29T16:49:58.172Z,75.88
2024-01-29T17:04:59.037Z,79.03
2024-01-29T17:19:59.427Z,79.72
2024-01-29T17:34:59.851Z,82.12
2024-01-29T17:50:00.178Z,85.33
2024-01-29T18:05:00.513Z,87.49
2024-01-29T18:20:01.374Z,88.89
2024-01-29T18:35:02.092Z,89.24
2024-01-29T18:50:02.702Z,89.91
2024-01-29T19:05:03.289Z,90.62
2024-01-29T19:20:03.701Z,92.38
2024-01-29T19:35:04.152Z,93.40
2024-01-29T19:50:04.695Z,92.96
2024-01-29T20:05:05.055Z,94.85
2024-01-29T20:20:05.501Z,94.37
2024-01-29T20:35:06.060Z,95.84
2024-01-29T20:50:06.775Z,94.06
2024-01-29T21:05:07.242Z,94.41
2024-01-29T21:20:07.741Z,95.23
2024-01-29T21:35:08.161Z,95.65
2024-01-29T21:50:08.597Z,95.34
2024-01-29T22:05:08.998Z,95.72
2024-01-29T22:20:09.636Z,94.98
2024-01-29T22:35:10.534Z,95.02
2024-01-29T22:50:10.984Z,95.13
2024-01-29T23:05:11.415Z,94.71
2024-01-29T23:20:11.868Z,94.96
2024-01-29T23:35:12.347Z,95.10
2024-01-29T23:50:12.838Z,95.84
